EDT,Max TemperatureF,Mean TemperatureF,Min TemperatureF,Max Dew PointF,MeanDew PointF,Min DewpointF,Max Humidity, Mean Humidity, Min Humidity, Max Sea Level PressureIn, Mean Sea Level PressureIn, Min Sea Level PressureIn, Max VisibilityMiles, Mean VisibilityMiles, Min VisibilityMiles, Max Wind SpeedMPH, Mean Wind SpeedMPH, Max Gust SpeedMPH,PrecipitationIn, CloudCover, Events, WindDirDegrees
2014-4-1,82,63,43,53,45,34,100,59,18,30.22,30.16,30.11,10,10,9,12,2,15,0.00,0,,207
2014-4-2,84,65,46,58,52,46,100,67,33,30.21,30.16,30.12,10,10,9,12,3,18,0.00,0,,220
2014-4-3,85,69,53,61,57,52,100,70,40,30.16,30.10,30.03,10,10,10,14,6,19,0.00,0,,215
2014-4-4,83,69,54,63,59,54,100,73,45,30.08,30.03,29.98,10,9,2,16,5,23,0.00,2,Fog,221
2014-4-5,82,73,63,67,64,60,100,79,58,30.06,30.01,29.97,10,7,2,14,5,19,T,6,,244
2014-4-6,85,74,63,64,62,55,93,65,37,30.04,29.98,29.94,10,10,6,15,6,21,T,2,Rain,128
2014-4-7,87,76,64,69,65,63,100,74,48,29.97,29.87,29.80,10,9,5,23,9,35,T,3,Rain,175
2014-4-8,77,67,56,71,63,52,100,77,54,29.85,29.77,29.70,10,7,1,24,11,31,1.08,5,Rain,255
2014-4-9,75,64,52,52,48,44,86,61,35,30.19,30.01,29.86,10,10,10,15,7,21,0.00,0,,297
2014-4-10,78,63,48,55,49,43,100,66,31,30.32,30.24,30.19,10,10,7,13,3,18,0.00,1,,160
2014-4-11,81,66,51,61,55,49,96,67,38,30.30,30.22,30.15,10,10,7,13,4,18,0.00,1,,115
2014-4-12,83,70,57,63,57,49,100,68,35,30.23,30.17,30.12,10,9,5,15,5,19,0.00,1,,100
2014-4-13,84,70,55,63,58,54,100,69,37,30.18,30.12,30.03,10,8,1,16,6,21,0.00,1,,102
2014-4-14,86,75,63,68,63,57,93,69,45,30.05,29.96,29.88,10,10,10,18,7,23,0.00,3,,158
2014-4-15,80,65,50,71,63,46,100,87,74,30.03,29.85,29.76,10,9,1,24,11,32,0.15,7,Rain,246
2014-4-16,69,56,42,51,45,36,83,66,49,30.23,30.15,30.05,10,10,10,21,12,28,0.00,5,,33
2014-4-17,75,64,53,62,57,48,93,79,64,30.27,30.21,30.18,10,9,6,21,11,28,0.00,7,,44
2014-4-18,73,68,62,71,66,61,100,94,87,30.19,30.01,29.91,10,9,2,17,8,23,0.14,7,Rain,116
2014-4-19,73,66,59,66,62,58,100,87,73,30.02,29.91,29.86,10,8,2,16,7,21,T,7,Rain,243
2014-4-20,65,61,56,58,55,53,100,86,72,30.13,30.06,29.99,10,9,2,16,8,19,0.00,8,,357
2014-4-21,73,64,54,59,57,54,100,79,57,30.12,30.07,29.99,10,10,7,14,5,18,0.00,5,,7
2014-4-22,82,67,52,63,56,52,100,73,45,29.99,29.94,29.85,10,7,0,16,7,22,0.00,3,Fog,249
2014-4-23,85,72,59,64,61,58,100,72,44,29.95,29.90,29.85,10,9,5,13,5,16,0.00,2,,272
2014-4-24,86,74,62,66,63,59,100,72,44,30.02,29.97,29.91,10,5,0,14,4,22,0.00,4,Fog,239
2014-4-25,85,73,60,66,63,59,100,72,43,30.02,29.98,29.92,10,6,0,21,8,26,0.00,3,Fog,269
2014-4-26,86,76,65,67,64,58,100,70,40,30.03,29.98,29.94,10,9,5,12,4,15,0.00,4,,276
2014-4-27,89,74,59,70,63,58,97,71,44,30.03,29.98,29.92,10,10,9,13,4,18,0.00,2,,182
2014-4-28,91,77,63,68,64,57,93,66,38,29.97,29.93,29.87,10,10,6,16,6,21,0.00,1,,199
2014-4-29,87,76,64,71,67,62,97,77,57,30.00,29.94,29.86,10,8,0,21,7,24,1.23,2,Fog-Rain-Thunderstorm,157
2014-4-30,82,74,65,72,68,63,100,77,54,30.09,30.02,29.94,10,10,3,18,6,24,0.03,2,Rain-Thunderstorm,217